createdAt,value
2022-12-05T00:02:23.115Z,26.87
2022-12-05T00:04:51.546Z,26.80
2022-12-05T00:07:21.396Z,25.77
2022-12-05T00:09:50.905Z,26.23
2022-12-05T00:12:19.455Z,27.67
2022-12-05T00:14:47.964Z,24.80
2022-12-05T00:17:16.380Z,26.80
2022-12-05T00:19:44.734Z,26.23
2022-12-05T00:22:13.404Z,27.10
2022-12-05T00:24:43.428Z,26.87
2022-12-05T00:27:11.794Z,25.97
2022-12-05T00:29:40.242Z,26.20
2022-12-05T00:32:08.833Z,26.53
2022-12-05T00:34:37.970Z,25.67
2022-12-05T00:37:06.391Z,25.80
2022-12-05T00:39:35.123Z,25.90
2022-12-05T00:42:05.001Z,25.83
2022-12-05T00:44:33.669Z,25.37
2022-12-05T00:47:02.026Z,25.90
2022-12-05T00:49:30.572Z,24.97
2022-12-05T00:51:59.156Z,23.73
2022-12-05T00:54:27.644Z,24.13
2022-12-05T00:56:56.515Z,24.83
2022-12-05T00:59:27.412Z,24.70
2022-12-05T01:01:56.053Z,23.07
2022-12-05T01:04:25.656Z,23.80
2022-12-05T01:06:55.985Z,23.57
2022-12-05T01:09:24.503Z,23.53
2022-12-05T01:11:53.106Z,22.60
2022-12-05T01:14:22.321Z,22.23
2022-12-05T01:16:52.558Z,23.33
2022-12-05T01:19:21.764Z,23.17
2022-12-05T01:21:50.151Z,22.80
2022-12-05T01:24:18.928Z,23.43
2022-12-05T01:26:47.402Z,23.23
2022-12-05T01:29:16.699Z,23.40
2022-12-05T01:31:45.560Z,23.37
2022-12-05T01:34:15.844Z,22.77
2022-12-05T01:36:44.588Z,22.50
2022-12-05T01:39:13.604Z,24.10
2022-12-05T01:41:42.943Z,23.00
2022-12-05T01:44:26.382Z,21.57
2022-12-05T01:46:55.273Z,22.27
2022-12-05T01:49:25.457Z,21.30
2022-12-05T01:51:54.763Z,21.17
2022-12-05T01:54:23.648Z,21.13
2022-12-05T01:56:52.661Z,21.83
2022-12-05T01:59:21.104Z,21.00
2022-12-05T02:01:49.921Z,20.63
2022-12-05T02:04:18.474Z,21.27
2022-12-05T02:06:48.544Z,20.63
2022-12-05T02:09:17.077Z,20.13
2022-12-05T02:11:47.730Z,20.53
2022-12-05T02:14:19.918Z,21.90
2022-12-05T02:16:50.187Z,21.57
2022-12-05T02:19:33.490Z,21.10
2022-12-05T02:22:23.024Z,21.17
2022-12-05T02:25:06.246Z,20.60
2022-12-05T02:27:45.678Z,21.17
2022-12-05T02:30:15.698Z,21.83
2022-12-05T02:32:50.112Z,19.83
2022-12-05T02:35:20.779Z,19.97
2022-12-05T02:37:51.415Z,22.43
2022-12-05T02:40:22.511Z,21.70
2022-12-05T02:42:51.917Z,22.77
2022-12-05T02:45:22.458Z,21.33
2022-12-05T02:47:51.978Z,21.30
2022-12-05T02:50:21.485Z,20.30
2022-12-05T02:52:50.589Z,21.50
2022-12-05T02:55:18.981Z,21.27
2022-12-05T02:57:47.864Z,22.03
2022-12-05T03:00:17.104Z,21.63
2022-12-05T03:02:46.920Z,20.53
2022-12-05T03:05:16.984Z,22.13
2022-12-05T03:07:45.662Z,21.73
2022-12-05T03:10:14.128Z,22.07
2022-12-05T03:12:44.023Z,20.83
2022-12-05T03:15:14.903Z,21.67
2022-12-05T03:17:43.865Z,20.70
2022-12-05T03:20:15.569Z,22.33
2022-12-05T03:22:44.141Z,21.40
2022-12-05T03:25:12.506Z,20.37
2022-12-05T03:27:42.500Z,20.80
2022-12-05T03:30:11.413Z,19.63
2022-12-05T03:32:41.387Z,21.83
2022-12-05T03:35:10.480Z,22.30
2022-12-05T03:37:44.021Z,21.77
2022-12-05T03:40:13.759Z,21.93
2022-12-05T03:42:42.708Z,21.33
2022-12-05T03:45:12.520Z,21.07
2022-12-05T03:47:42.882Z,21.27
2022-12-05T03:50:12.676Z,21.17
2022-12-05T03:53:17.452Z,20.00
2022-12-05T03:55:33.377Z,19.07
2022-12-05T03:58:02.568Z,21.70
2022-12-05T04:00:32.262Z,20.50
2022-12-05T04:03:02.342Z,19.87
2022-12-05T04:05:30.954Z,20.40
2022-12-05T04:08:02.174Z,19.73
2022-12-05T04:10:31.015Z,19.07
2022-12-05T04:13:17.680Z,20.93
2022-12-05T04:16:01.006Z,19.97
2022-12-05T04:18:29.802Z,19.03
2022-12-05T04:21:15.833Z,19.90
2022-12-05T04:24:05.647Z,19.63
2022-12-05T04:26:33.190Z,19.73
2022-12-05T04:29:03.460Z,19.27
2022-12-05T04:31:33.060Z,20.40
2022-12-05T04:34:02.521Z,19.33
2022-12-05T04:36:32.234Z,19.77
2022-12-05T04:39:03.116Z,20.27
2022-12-05T04:41:32.214Z,20.47
2022-12-05T04:44:01.059Z,19.63
2022-12-05T04:46:29.510Z,19.73
2022-12-05T04:48:58.615Z,19.47
2022-12-05T04:51:27.783Z,19.53
2022-12-05T04:53:56.769Z,19.57
2022-12-05T04:56:27.099Z,19.80
2022-12-05T04:58:55.549Z,19.20
2022-12-05T05:01:24.925Z,19.67
2022-12-05T05:03:53.722Z,20.23
2022-12-05T05:06:22.148Z,19.37
2022-12-05T05:08:51.111Z,19.37
2022-12-05T05:11:20.137Z,19.80
2022-12-05T05:13:50.152Z,19.00
2022-12-05T05:16:19.536Z,18.43
2022-12-05T05:18:48.238Z,18.27
2022-12-05T05:21:20.115Z,17.83
2022-12-05T05:23:48.703Z,19.20
2022-12-05T05:26:17.284Z,19.13
2022-12-05T05:28:45.695Z,18.57
2022-12-05T05:31:15.580Z,18.20
2022-12-05T05:33:44.091Z,18.47
2022-12-05T05:36:13.051Z,18.20
2022-12-05T05:38:41.792Z,18.30
2022-12-05T05:41:13.733Z,19.77
2022-12-05T05:43:42.338Z,20.20
2022-12-05T05:46:10.772Z,19.90
2022-12-05T05:48:40.546Z,20.73
2022-12-05T05:51:09.371Z,18.80
2022-12-05T05:53:37.762Z,20.53
2022-12-05T05:56:06.362Z,21.33
2022-12-05T05:58:34.898Z,20.10
2022-12-05T06:01:04.912Z,20.87
2022-12-05T06:03:33.599Z,20.10
2022-12-05T06:06:04.704Z,20.17
2022-12-05T06:08:33.211Z,21.13
2022-12-05T06:11:01.598Z,21.37
2022-12-05T06:13:30.095Z,20.37
2022-12-05T06:15:58.573Z,20.63
2022-12-05T06:18:27.242Z,20.73
2022-12-05T06:20:55.804Z,19.77
2022-12-05T06:23:26.054Z,20.43
2022-12-05T06:25:54.997Z,20.83
2022-12-05T06:28:25.633Z,21.30
2022-12-05T06:30:54.386Z,21.07
2022-12-05T06:33:23.164Z,21.93
2022-12-05T06:35:51.620Z,21.13
2022-12-05T06:38:19.967Z,21.30
2022-12-05T06:40:49.829Z,21.17
2022-12-05T06:43:18.224Z,21.73
2022-12-05T06:45:46.731Z,20.77
2022-12-05T06:48:15.378Z,20.93
2022-12-05T06:50:49.741Z,20.53
2022-12-05T06:53:21.087Z,20.67
2022-12-05T06:55:58.532Z,20.93
2022-12-05T06:58:28.564Z,21.60
2022-12-05T07:01:14.932Z,21.27
2022-12-05T07:03:44.232Z,21.93
2022-12-05T07:06:12.742Z,22.23
2022-12-05T07:08:41.511Z,20.03
2022-12-05T07:11:11.323Z,20.37
2022-12-05T07:13:39.987Z,21.13
2022-12-05T07:16:08.712Z,20.70
2022-12-05T07:18:37.247Z,20.40
2022-12-05T07:21:14.394Z,20.37
2022-12-05T07:23:43.325Z,20.37
2022-12-05T07:26:13.457Z,19.80
2022-12-05T07:28:42.232Z,20.30
2022-12-05T07:31:10.902Z,19.53
2022-12-05T07:33:39.430Z,21.00
2022-12-05T07:36:09.126Z,19.57
2022-12-05T07:38:37.969Z,20.17
2022-12-05T07:41:12.739Z,20.03
2022-12-05T07:43:42.838Z,18.63
2022-12-05T07:46:12.921Z,19.00
2022-12-05T07:48:41.595Z,19.10
2022-12-05T07:51:10.848Z,18.90
2022-12-05T07:53:39.308Z,17.90
2022-12-05T07:56:09.628Z,19.63
2022-12-05T07:58:38.241Z,18.20
2022-12-05T08:01:11.982Z,16.57
2022-12-05T08:03:40.531Z,16.80
2022-12-05T08:06:10.100Z,16.87
2022-12-05T08:08:38.599Z,16.53
2022-12-05T08:11:10.728Z,16.97
2022-12-05T08:13:39.364Z,17.23
2022-12-05T08:16:08.721Z,14.70
2022-12-05T08:18:38.699Z,15.00
2022-12-05T08:21:07.737Z,14.50
2022-12-05T08:23:36.979Z,15.10
2022-12-05T08:26:05.556Z,15.33
2022-12-05T08:28:34.133Z,15.10
2022-12-05T08:31:06.973Z,14.53
2022-12-05T08:33:35.715Z,13.77
2022-12-05T08:36:05.670Z,13.53
2022-12-05T08:38:34.477Z,13.90
2022-12-05T08:41:03.380Z,14.27
2022-12-05T08:43:31.734Z,12.90
2022-12-05T08:46:00.252Z,12.63
2022-12-05T08:48:29.955Z,12.67
2022-12-05T08:51:01.394Z,13.30
2022-12-05T08:53:31.236Z,12.60
2022-12-05T08:56:02.062Z,13.03
2022-12-05T08:58:40.272Z,12.23
2022-12-05T09:01:12.478Z,12.40
2022-12-05T09:03:46.078Z,12.07
2022-12-05T09:06:17.038Z,12.87
2022-12-05T09:08:47.296Z,12.10
2022-12-05T09:11:16.812Z,12.17
2022-12-05T09:13:45.710Z,11.70
2022-12-05T09:16:14.794Z,11.73
2022-12-05T09:18:43.506Z,11.73
2022-12-05T09:21:12.470Z,10.40
2022-12-05T09:23:41.279Z,11.53
2022-12-05T09:26:12.627Z,10.90
2022-12-05T09:28:41.300Z,10.53
2022-12-05T09:31:12.170Z,10.30
2022-12-05T09:33:40.650Z,9.97
2022-12-05T09:36:10.242Z,10.27
2022-12-05T09:38:38.726Z,9.53
2022-12-05T09:41:09.381Z,9.60
2022-12-05T09:43:40.189Z,10.23
2022-12-05T09:46:10.225Z,9.47
2022-12-05T09:48:39.455Z,10.13
2022-12-05T09:51:11.485Z,9.63
2022-12-05T09:53:40.151Z,9.43
2022-12-05T09:56:14.953Z,8.27
2022-12-05T09:58:46.104Z,8.87
2022-12-05T10:01:21.624Z,8.43
2022-12-05T10:03:51.523Z,8.70
2022-12-05T10:06:20.648Z,9.20
2022-12-05T10:08:58.119Z,8.10
2022-12-05T10:11:28.312Z,8.97
2022-12-05T10:14:02.613Z,9.33
2022-12-05T10:16:31.987Z,8.50
2022-12-05T10:19:05.114Z,9.67
2022-12-05T10:21:34.221Z,9.10
2022-12-05T10:24:03.122Z,9.13
2022-12-05T10:26:38.117Z,8.73
2022-12-05T10:29:12.437Z,9.13
2022-12-05T10:31:44.012Z,9.03
2022-12-05T10:34:14.132Z,8.60
2022-12-05T10:36:46.774Z,9.20
2022-12-05T10:39:15.868Z,10.03
2022-12-05T10:41:44.590Z,9.13
2022-12-05T10:44:14.796Z,10.07
2022-12-05T10:46:43.383Z,9.43
2022-12-05T10:49:12.768Z,9.47
2022-12-05T10:51:41.468Z,9.50
2022-12-05T10:54:16.154Z,9.40
2022-12-05T10:56:51.053Z,9.50
2022-12-05T10:59:21.383Z,9.30
2022-12-05T11:01:54.834Z,9.13
2022-12-05T11:04:28.745Z,8.40
2022-12-05T11:07:01.046Z,8.87
2022-12-05T11:09:30.185Z,8.90
2022-12-05T11:12:03.056Z,8.40
2022-12-05T11:14:34.444Z,8.93
2022-12-05T11:17:09.280Z,8.70
2022-12-05T11:19:37.905Z,7.93
2022-12-05T11:22:08.520Z,9.83
2022-12-05T11:24:37.537Z,9.07
2022-12-05T11:27:21.877Z,10.13
2022-12-05T11:29:57.516Z,9.37
2022-12-05T11:32:26.679Z,9.93
2022-12-05T11:34:56.117Z,10.20
2022-12-05T11:37:25.536Z,10.23
2022-12-05T11:39:54.112Z,10.50
2022-12-05T11:42:28.297Z,10.03
2022-12-05T11:45:04.411Z,10.10
2022-12-05T11:47:39.530Z,10.20
2022-12-05T11:50:23.072Z,9.57
2022-12-05T11:52:57.906Z,9.57
2022-12-05T11:55:27.298Z,9.77
2022-12-05T11:58:13.968Z,9.17
2022-12-05T12:00:46.629Z,10.13
2022-12-05T12:03:21.511Z,10.40
2022-12-05T12:05:52.230Z,9.83
2022-12-05T12:08:22.269Z,9.00
2022-12-05T12:10:52.240Z,8.73
2022-12-05T12:13:30.269Z,9.17
2022-12-05T12:16:08.504Z,8.60
2022-12-05T12:18:52.160Z,8.10
2022-12-05T12:21:20.967Z,9.10
2022-12-05T12:23:53.627Z,8.90
2022-12-05T12:26:23.588Z,8.50
2022-12-05T12:28:56.377Z,9.13
2022-12-05T12:31:36.395Z,8.67
2022-12-05T12:34:10.169Z,8.30
2022-12-05T12:36:39.779Z,9.47
2022-12-05T12:39:16.309Z,8.40
2022-12-05T12:41:48.054Z,9.10
2022-12-05T12:44:24.598Z,8.20
2022-12-05T12:46:54.868Z,9.13
2022-12-05T12:49:38.403Z,8.83
2022-12-05T12:52:08.528Z,9.97
2022-12-05T12:55:05.542Z,8.90
2022-12-05T12:57:36.402Z,10.13
2022-12-05T13:00:06.385Z,9.70
2022-12-05T13:02:38.259Z,8.97
2022-12-05T13:05:08.670Z,8.63
2022-12-05T13:07:38.323Z,9.27
2022-12-05T13:10:08.124Z,10.10
2022-12-05T13:12:39.510Z,9.13
2022-12-05T13:15:08.901Z,9.67
2022-12-05T13:17:39.854Z,10.20
2022-12-05T13:20:12.414Z,10.23
2022-12-05T13:22:40.967Z,10.37
2022-12-05T13:25:14.421Z,10.63
2022-12-05T13:27:47.921Z,11.13
2022-12-05T13:30:18.240Z,11.37
2022-12-05T13:32:48.358Z,12.63
2022-12-05T13:35:19.073Z,11.90
2022-12-05T13:38:05.368Z,13.03
2022-12-05T13:40:51.899Z,11.83
2022-12-05T13:43:20.659Z,11.07
2022-12-05T13:46:05.678Z,11.33
2022-12-05T13:48:39.901Z,10.50
2022-12-05T13:51:09.061Z,10.30
2022-12-05T13:53:38.897Z,9.93
2022-12-05T13:56:08.284Z,10.87
2022-12-05T13:58:55.890Z,10.83
2022-12-05T14:01:51.910Z,11.23
2022-12-05T14:04:40.477Z,10.90
2022-12-05T14:07:18.415Z,12.03
2022-12-05T14:09:57.456Z,11.57
2022-12-05T14:12:33.299Z,11.10
2022-12-05T14:15:01.949Z,11.40
2022-12-05T14:17:31.153Z,10.47
2022-12-05T14:20:02.135Z,11.20
2022-12-05T14:22:42.646Z,11.40
2022-12-05T14:25:13.436Z,10.93
2022-12-05T14:27:48.022Z,10.67
2022-12-05T14:30:20.219Z,11.23
2022-12-05T14:32:48.885Z,10.50
2022-12-05T14:35:17.781Z,9.70
2022-12-05T14:37:54.052Z,9.37
2022-12-05T14:40:23.814Z,10.13
2022-12-05T14:42:53.320Z,9.33
2022-12-05T14:45:26.114Z,9.80
2022-12-05T14:47:55.329Z,10.03
2022-12-05T14:50:25.817Z,9.60
2022-12-05T14:53:12.752Z,9.17
2022-12-05T14:55:42.847Z,9.43
2022-12-05T14:58:11.765Z,8.97
2022-12-05T15:00:45.181Z,9.30
2022-12-05T15:03:18.934Z,9.53
2022-12-05T15:05:48.054Z,8.73
2022-12-05T15:08:16.887Z,9.30
2022-12-05T15:10:47.169Z,8.43
2022-12-05T15:13:17.744Z,8.80
2022-12-05T15:15:48.424Z,8.90
2022-12-05T15:18:18.913Z,8.37
2022-12-05T15:20:48.512Z,8.33
2022-12-05T15:23:35.725Z,8.43
2022-12-05T15:26:38.100Z,8.97
2022-12-05T15:29:01.145Z,7.80
2022-12-05T15:31:29.788Z,7.97
2022-12-05T15:33:58.804Z,8.03
2022-12-05T15:36:27.556Z,8.07
2022-12-05T15:38:56.514Z,8.63
2022-12-05T15:41:26.543Z,8.90
2022-12-05T15:43:57.280Z,8.90
2022-12-05T15:46:27.698Z,9.43
2022-12-05T15:48:56.519Z,8.53
2022-12-05T15:51:29.142Z,8.90
2022-12-05T15:53:58.588Z,8.90
2022-12-05T15:56:29.408Z,8.37
2022-12-05T15:58:58.673Z,9.77
2022-12-05T16:01:27.496Z,8.73
2022-12-05T16:03:56.666Z,9.23
2022-12-05T16:06:26.106Z,9.43
2022-12-05T16:08:54.470Z,9.13
2022-12-05T16:11:22.862Z,8.60
2022-12-05T16:13:53.391Z,9.43
2022-12-05T16:16:22.086Z,8.67
2022-12-05T16:18:51.172Z,8.47
2022-12-05T16:21:38.949Z,9.37
2022-12-05T16:24:08.569Z,8.93
2022-12-05T16:26:40.659Z,8.93
2022-12-05T16:29:10.890Z,8.07
2022-12-05T16:31:39.393Z,8.73
2022-12-05T16:34:08.336Z,8.07
2022-12-05T16:36:37.611Z,8.47
2022-12-05T16:39:06.472Z,8.20
2022-12-05T16:41:35.826Z,8.33
2022-12-05T16:44:09.414Z,7.70
2022-12-05T16:46:48.056Z,7.37
2022-12-05T16:49:24.920Z,7.83
2022-12-05T16:51:57.344Z,8.33
2022-12-05T16:54:26.016Z,7.27
2022-12-05T16:56:54.802Z,7.07
2022-12-05T16:59:23.984Z,7.00
2022-12-05T17:01:54.112Z,6.63
2022-12-05T17:04:22.661Z,6.30
2022-12-05T17:06:51.218Z,6.90
2022-12-05T17:09:19.740Z,5.97
2022-12-05T17:11:48.876Z,6.00
2022-12-05T17:14:17.988Z,5.50
2022-12-05T17:16:49.818Z,5.73
2022-12-05T17:19:19.757Z,5.53
2022-12-05T17:21:48.182Z,5.53
2022-12-05T17:24:17.466Z,6.20
2022-12-05T17:26:46.254Z,6.20
2022-12-05T17:29:14.654Z,6.37
2022-12-05T17:31:43.090Z,7.60
2022-12-05T17:34:15.651Z,7.40
2022-12-05T17:36:45.795Z,8.83
2022-12-05T17:39:14.285Z,8.87
2022-12-05T17:41:42.915Z,8.47
2022-12-05T17:44:11.999Z,8.10
2022-12-05T17:46:40.537Z,7.93
2022-12-05T17:49:10.867Z,8.10
2022-12-05T17:51:58.510Z,9.87
2022-12-05T17:54:29.235Z,8.67
2022-12-05T17:56:57.661Z,8.47
2022-12-05T17:59:26.056Z,8.40
2022-12-05T18:01:54.493Z,9.80
2022-12-05T18:04:23.751Z,9.97
2022-12-05T18:06:52.354Z,10.57
2022-12-05T18:09:20.945Z,9.60
2022-12-05T18:11:51.259Z,9.93
2022-12-05T18:14:19.655Z,9.07
2022-12-05T18:16:48.328Z,10.03
2022-12-05T18:19:16.777Z,9.87
2022-12-05T18:24:14.598Z,10.93
2022-12-05T18:26:43.065Z,10.17
2022-12-05T18:29:13.088Z,8.77
2022-12-05T18:31:42.958Z,9.07
2022-12-05T18:34:11.450Z,8.50
2022-12-05T18:36:42.808Z,8.07
2022-12-05T18:39:12.166Z,7.87
2022-12-05T18:41:40.673Z,8.07
2022-12-05T18:44:09.983Z,8.47
2022-12-05T18:46:54.571Z,7.77
2022-12-05T18:49:30.620Z,7.70
2022-12-05T18:51:59.354Z,7.93
2022-12-05T18:54:27.888Z,7.57
2022-12-05T18:56:56.576Z,7.67
2022-12-05T18:59:25.839Z,7.57
2022-12-05T19:01:56.139Z,7.40
2022-12-05T19:04:24.723Z,8.27
2022-12-05T19:06:53.783Z,8.50
2022-12-05T19:09:23.027Z,8.40
2022-12-05T19:11:54.904Z,7.80
2022-12-05T19:14:23.527Z,8.23
2022-12-05T19:16:58.061Z,6.87
2022-12-05T19:19:30.331Z,7.43
2022-12-05T19:21:59.477Z,6.70
2022-12-05T19:24:27.962Z,7.70
2022-12-05T19:26:56.586Z,6.70
2022-12-05T19:29:25.024Z,7.77
2022-12-05T19:31:53.677Z,7.47
2022-12-05T19:34:22.618Z,7.60
2022-12-05T19:36:52.773Z,7.67
2022-12-05T19:39:23.336Z,7.83
2022-12-05T19:41:52.104Z,7.70
2022-12-05T19:44:20.785Z,6.80
2022-12-05T19:46:50.126Z,7.50
2022-12-05T19:49:18.834Z,6.53
2022-12-05T19:51:48.673Z,7.00
2022-12-05T19:54:19.657Z,7.40
2022-12-05T19:56:58.359Z,7.50
2022-12-05T19:59:29.030Z,7.33
2022-12-05T20:01:57.606Z,7.57
2022-12-05T20:04:26.238Z,7.73
2022-12-05T20:06:54.709Z,7.07
2022-12-05T20:09:24.533Z,7.83
2022-12-05T20:11:55.418Z,8.40
2022-12-05T20:14:24.644Z,8.53
2022-12-05T20:16:53.137Z,7.97
2022-12-05T20:19:21.781Z,8.17
2022-12-05T20:21:50.371Z,8.60
2022-12-05T20:24:23.615Z,8.53
2022-12-05T20:26:53.573Z,8.53
2022-12-05T20:29:22.012Z,8.53
2022-12-05T20:31:56.872Z,7.80
2022-12-05T20:34:25.369Z,8.03
2022-12-05T20:36:53.855Z,8.20
2022-12-05T20:39:23.196Z,7.60
2022-12-05T20:41:53.380Z,7.57
2022-12-05T20:44:21.980Z,7.10
2022-12-05T20:46:50.983Z,7.90
2022-12-05T20:49:19.628Z,6.90
2022-12-05T20:51:48.158Z,7.57
2022-12-05T20:54:18.480Z,6.40
2022-12-05T20:56:47.005Z,7.50
2022-12-05T20:59:16.903Z,8.00
2022-12-05T21:01:47.051Z,8.40
2022-12-05T21:04:18.076Z,7.23
2022-12-05T21:06:47.399Z,7.00
2022-12-05T21:09:26.215Z,7.20
2022-12-05T21:11:54.757Z,6.57
2022-12-05T21:14:29.559Z,6.67
2022-12-05T21:16:58.164Z,6.57
2022-12-05T21:19:30.029Z,6.77
2022-12-05T21:21:58.786Z,6.77
2022-12-05T21:24:28.634Z,6.87
2022-12-05T21:26:57.165Z,7.30
2022-12-05T21:29:26.953Z,7.13
2022-12-05T21:31:59.680Z,7.70
2022-12-05T21:34:28.144Z,7.03
2022-12-05T21:37:01.152Z,7.37
2022-12-05T21:39:29.684Z,8.03
2022-12-05T21:41:58.372Z,7.90
2022-12-05T21:44:31.434Z,7.03
2022-12-05T21:46:59.941Z,7.83
2022-12-05T21:49:28.340Z,7.37
2022-12-05T21:51:56.763Z,6.90
2022-12-05T21:54:25.497Z,7.00
2022-12-05T21:56:53.927Z,6.50
2022-12-05T21:59:22.682Z,7.23
2022-12-05T22:01:53.167Z,7.60
2022-12-05T22:04:22.866Z,7.17
2022-12-05T22:06:55.431Z,6.87
2022-12-05T22:09:24.067Z,6.13
2022-12-05T22:11:52.667Z,7.50
2022-12-05T22:14:21.446Z,7.30
2022-12-05T22:16:50.093Z,7.00
2022-12-05T22:19:19.892Z,7.13
2022-12-05T22:21:50.090Z,7.33
2022-12-05T22:24:18.504Z,7.13
2022-12-05T22:26:47.079Z,6.67
2022-12-05T22:29:15.554Z,6.13
2022-12-05T22:31:44.042Z,6.47
2022-12-05T22:34:12.839Z,6.53
2022-12-05T22:36:43.084Z,6.77
2022-12-05T22:39:12.857Z,7.00
2022-12-05T22:41:41.354Z,6.63
2022-12-05T22:44:10.007Z,7.07
2022-12-05T22:46:38.728Z,7.47
2022-12-05T22:49:07.257Z,8.17
2022-12-05T22:51:35.803Z,8.03
2022-12-05T22:54:05.794Z,7.73
2022-12-05T22:56:34.236Z,7.47
2022-12-05T22:59:02.962Z,7.97
2022-12-05T23:01:31.859Z,7.57
2022-12-05T23:04:01.196Z,6.47
2022-12-05T23:06:30.016Z,7.17
2022-12-05T23:08:58.536Z,6.93
2022-12-05T23:11:28.434Z,7.10
2022-12-05T23:14:01.302Z,6.30
2022-12-05T23:16:30.997Z,6.83
2022-12-05T23:19:00.250Z,7.00
2022-12-05T23:21:29.670Z,6.70
2022-12-05T23:23:58.481Z,6.60
2022-12-05T23:26:29.261Z,7.03
2022-12-05T23:28:58.791Z,6.40
2022-12-05T23:31:27.361Z,6.80
2022-12-05T23:33:59.856Z,7.30
2022-12-05T23:36:31.552Z,6.70
2022-12-05T23:39:00.042Z,6.43
2022-12-05T23:41:30.200Z,5.80
2022-12-05T23:43:58.785Z,6.07
2022-12-05T23:46:28.043Z,5.70
2022-12-05T23:48:57.681Z,5.77
2022-12-05T23:51:26.545Z,4.93
2022-12-05T23:53:56.417Z,5.50
2022-12-05T23:56:25.864Z,5.73
2022-12-05T23:58:55.827Z,5.47
